Time;durP1;ratioP1;P1;durP2;ratioP2;P2;SDS_P1;SDS_P2;PMS_P1;PMS_P2;Temp;Humidity;BMP_temperature;BMP_pressure;BME280_temperature;BME280_humidity;BME280_pressure;Samples;Min_cycle;Max_cycle;Signal;HPM_P1;HPM_P2
2023/07/01 00:02:13;;;;;;;;;;;26.10;56.90;;;;;;5042800;28;42922;-80
2023/07/01 00:04:40;;;;;;;;;;;26.10;56.30;;;;;;5043578;28;44006;-80
2023/07/01 00:07:06;;;;;;;;;;;26.10;56.70;;;;;;5043118;28;42810;-80
2023/07/01 00:09:32;;;;;;;;;;;26.00;56.80;;;;;;5043803;28;42969;-80
2023/07/01 00:11:57;;;;;;;;;;;26.00;56.10;;;;;;5043375;28;42980;-80
2023/07/01 00:14:23;;;;;;;;;;;26.00;56.20;;;;;;5022204;28;44049;-80
2023/07/01 00:16:48;;;;;;;;;;;26.10;56.80;;;;;;5043824;28;42925;-79
2023/07/01 00:19:14;;;;;;;;;;;26.10;56.80;;;;;;5025787;28;43699;-81
2023/07/01 00:21:39;;;;;;;;;;;26.10;56.90;;;;;;5042737;28;42970;-81
2023/07/01 00:24:05;;;;;;;;;;;26.10;56.30;;;;;;5043627;28;43523;-80
2023/07/01 00:26:31;;;;;;;;;;;26.10;56.70;;;;;;5043613;28;42907;-80
2023/07/01 00:28:56;;;;;;;;;;;26.10;56.20;;;;;;5043389;28;42937;-81
2023/07/01 00:31:22;;;;;;;;;;;26.10;56.60;;;;;;5045006;28;42964;-80
2023/07/01 00:33:47;;;;;;;;;;;26.10;56.60;;;;;;5045693;28;43505;-81
2023/07/01 00:36:13;;;;;;;;;;;26.20;56.00;;;;;;5046345;28;43086;-80
2023/07/01 00:38:38;;;;;;;;;;;26.20;56.40;;;;;;5045871;28;43016;-80
2023/07/01 00:41:04;;;;;;;;;;;26.20;56.40;;;;;;5046163;28;43036;-80
2023/07/01 00:43:29;;;;;;;;;;;26.10;56.40;;;;;;5045809;28;42933;-80
2023/07/01 00:45:55;;;;;;;;;;;26.10;56.60;;;;;;5046754;28;43034;-81
2023/07/01 00:48:24;;;;;;;;;;;26.10;56.70;;;;;;5047358;28;42882;-81
2023/07/01 00:50:51;;;;;;;;;;;26.10;56.60;;;;;;5045794;28;42873;-79
2023/07/01 00:53:17;;;;;;;;;;;26.10;56.10;;;;;;5046056;28;42930;-82
2023/07/01 00:55:42;;;;;;;;;;;26.10;56.60;;;;;;5047146;28;42942;-80
2023/07/01 00:58:08;;;;;;;;;;;26.00;56.70;;;;;;5045782;28;43262;-80
2023/07/01 01:00:33;;;;;;;;;;;26.00;56.20;;;;;;5046405;28;43086;-81
2023/07/01 01:03:06;;;;;;;;;;;26.00;56.20;;;;;;5045824;28;43008;-81
2023/07/01 01:05:34;;;;;;;;;;;26.10;56.20;;;;;;5027517;28;42972;-82
2023/07/01 01:08:14;;;;;;;;;;;26.00;56.10;;;;;;5045784;28;44132;-81
2023/07/01 01:10:43;;;;;;;;;;;26.10;56.60;;;;;;5036179;28;44116;-81
2023/07/01 01:13:09;;;;;;;;;;;26.00;56.80;;;;;;5045694;28;43110;-81
2023/07/01 01:15:34;;;;;;;;;;;25.90;56.80;;;;;;5046313;28;43200;-81
2023/07/01 01:18:04;;;;;;;;;;;26.00;56.50;;;;;;5044879;28;43491;-81
2023/07/01 01:20:31;;;;;;;;;;;26.00;57.00;;;;;;5045863;28;43057;-81
2023/07/01 01:23:00;;;;;;;;;;;26.10;56.20;;;;;;5027311;28;45516;-81
2023/07/01 01:25:35;;;;;;;;;;;26.10;56.60;;;;;;5045775;28;42978;-81
2023/07/01 01:28:01;;;;;;;;;;;26.20;56.50;;;;;;5045740;28;42934;-80
2023/07/01 01:30:31;;;;;;;;;;;26.20;56.40;;;;;;5045924;28;42963;-81
2023/07/01 01:32:56;;;;;;;;;;;26.10;56.30;;;;;;5045247;28;43115;-82
2023/07/01 01:35:22;;;;;;;;;;;26.00;55.90;;;;;;5046458;28;42858;-81
2023/07/01 01:37:47;;;;;;;;;;;26.00;56.60;;;;;;5046304;28;43384;-81
2023/07/01 01:40:15;;;;;;;;;;;26.00;56.00;;;;;;5046232;28;42818;-83
2023/07/01 01:42:43;;;;;;;;;;;25.90;56.10;;;;;;5045355;28;43650;-81
2023/07/01 01:45:09;;;;;;;;;;;26.00;56.50;;;;;;5045448;28;43056;-81
2023/07/01 01:47:35;;;;;;;;;;;26.00;56.20;;;;;;5045130;28;43542;-81
2023/07/01 01:50:02;;;;;;;;;;;26.00;55.60;;;;;;5046933;28;42962;-81
2023/07/01 01:52:29;;;;;;;;;;;26.10;56.10;;;;;;5044954;28;43569;-80
2023/07/01 01:54:56;;;;;;;;;;;26.00;55.90;;;;;;5046169;28;42929;-81
2023/07/01 01:57:22;;;;;;;;;;;26.10;55.40;;;;;;5045931;28;43058;-81
2023/07/01 01:59:49;;;;;;;;;;;26.10;55.90;;;;;;5044936;28;58494;-81
2023/07/01 02:02:14;;;;;;;;;;;26.00;55.60;;;;;;5045271;28;42943;-81
2023/07/01 02:04:40;;;;;;;;;;;25.90;56.10;;;;;;5026791;28;43174;-81
2023/07/01 02:07:06;;;;;;;;;;;26.00;56.20;;;;;;5024874;28;45476;-82
2023/07/01 02:09:32;;;;;;;;;;;25.90;55.80;;;;;;5045313;28;42932;-82
2023/07/01 02:11:57;;;;;;;;;;;25.90;56.30;;;;;;5045340;28;43872;-82
2023/07/01 02:14:23;;;;;;;;;;;25.90;56.40;;;;;;5043035;28;44272;-81
2023/07/01 02:16:50;;;;;;;;;;;25.90;56.40;;;;;;5033744;28;42876;-82
2023/07/01 02:19:15;;;;;;;;;;;26.00;56.40;;;;;;5044307;28;42995;-81
2023/07/01 02:21:41;;;;;;;;;;;25.90;56.10;;;;;;5045111;28;43425;-82
2023/07/01 02:24:06;;;;;;;;;;;25.90;56.10;;;;;;5045502;28;42904;-81
2023/07/01 02:26:32;;;;;;;;;;;25.90;56.70;;;;;;5045284;28;42976;-82
2023/07/01 02:28:57;;;;;;;;;;;25.90;56.80;;;;;;5045403;28;42866;-83
2023/07/01 02:31:23;;;;;;;;;;;24.60;56.00;;;;;;5045067;28;43646;-82
2023/07/01 02:33:50;;;;;;;;;;;25.70;56.80;;;;;;5031707;28;43087;-83
2023/07/01 02:36:15;;;;;;;;;;;26.00;56.50;;;;;;5024082;28;43126;-81
2023/07/01 02:38:41;;;;;;;;;;;26.10;57.00;;;;;;5025274;28;42787;-82
2023/07/01 02:41:06;;;;;;;;;;;26.10;57.10;;;;;;5024899;28;43761;-82
2023/07/01 02:43:32;;;;;;;;;;;26.00;57.40;;;;;;5024710;28;42948;-81
2023/07/01 02:45:57;;;;;;;;;;;26.00;57.00;;;;;;5020699;28;42946;-82
2023/07/01 02:48:23;;;;;;;;;;;26.00;57.00;;;;;;5022070;28;42958;-84
2023/07/01 02:50:48;;;;;;;;;;;26.10;57.60;;;;;;5005587;28;43726;-82
2023/07/01 02:53:15;;;;;;;;;;;26.00;57.60;;;;;;5011842;28;42918;-80
2023/07/01 02:55:41;;;;;;;;;;;26.00;57.30;;;;;;5016951;28;42827;-82
2023/07/01 02:58:06;;;;;;;;;;;25.90;57.20;;;;;;5024039;28;43088;-81
2023/07/01 03:00:32;;;;;;;;;;;26.00;57.70;;;;;;5023917;28;43795;-82
2023/07/01 03:03:05;;;;;;;;;;;25.90;57.50;;;;;;5005407;28;42949;-81
2023/07/01 03:05:40;;;;;;;;;;;26.00;57.50;;;;;;5021674;28;43754;-83
2023/07/01 03:08:06;;;;;;;;;;;26.00;58.10;;;;;;5023498;28;42885;-80
2023/07/01 03:10:35;;;;;;;;;;;26.10;57.40;;;;;;5024578;28;43566;-82
2023/07/01 03:13:00;;;;;;;;;;;26.00;57.60;;;;;;5024536;28;42993;-81
2023/07/01 03:15:26;;;;;;;;;;;26.00;57.00;;;;;;5022771;28;42865;-82
2023/07/01 03:17:52;;;;;;;;;;;26.10;57.50;;;;;;5024808;28;42965;-83
2023/07/01 03:20:24;;;;;;;;;;;26.10;57.40;;;;;;5024392;28;43571;-81
2023/07/01 03:22:50;;;;;;;;;;;26.00;57.10;;;;;;5024360;28;42955;-83
2023/07/01 03:25:15;;;;;;;;;;;26.00;57.50;;;;;;5022163;28;43138;-83
2023/07/01 03:27:41;;;;;;;;;;;26.00;57.60;;;;;;5022445;28;43086;-82
2023/07/01 03:30:13;;;;;;;;;;;26.00;57.60;;;;;;5006454;28;43805;-82
2023/07/01 03:32:42;;;;;;;;;;;26.00;57.10;;;;;;5028145;28;42973;-83
2023/07/01 03:35:11;;;;;;;;;;;26.10;57.60;;;;;;5043744;28;44101;-82
2023/07/01 03:37:37;;;;;;;;;;;26.10;57.00;;;;;;5043308;28;42973;-82
2023/07/01 03:40:04;;;;;;;;;;;26.10;57.40;;;;;;5025141;28;43691;-82
2023/07/01 03:42:30;;;;;;;;;;;26.00;57.60;;;;;;5043713;28;42970;-82
2023/07/01 03:44:55;;;;;;;;;;;26.00;57.90;;;;;;5044073;28;42842;-83
2023/07/01 03:47:21;;;;;;;;;;;26.00;57.60;;;;;;5043340;28;42892;-82
2023/07/01 03:49:47;;;;;;;;;;;26.00;57.70;;;;;;5043275;28;43158;-82
2023/07/01 03:52:12;;;;;;;;;;;25.90;57.80;;;;;;5043505;28;42948;-83
2023/07/01 03:54:38;;;;;;;;;;;26.00;57.60;;;;;;5043575;28;43901;-82
2023/07/01 03:57:04;;;;;;;;;;;25.90;57.40;;;;;;5042327;28;42929;-81
2023/07/01 03:59:29;;;;;;;;;;;26.00;57.60;;;;;;5043515;28;43308;-81
2023/07/01 04:01:54;;;;;;;;;;;26.00;57.70;;;;;;5042357;28;43599;-80
2023/07/01 04:04:20;;;;;;;;;;;26.00;57.70;;;;;;5043469;28;43539;-82
2023/07/01 04:06:45;;;;;;;;;;;25.90;57.40;;;;;;5045680;28;43102;-83
2023/07/01 04:09:15;;;;;;;;;;;26.00;57.40;;;;;;5045821;28;42940;-83
2023/07/01 04:11:40;;;;;;;;;;;26.00;57.60;;;;;;5047002;28;42956;-83
2023/07/01 04:14:06;;;;;;;;;;;25.90;58.00;;;;;;5043661;28;43622;-81
2023/07/01 04:16:32;;;;;;;;;;;25.90;57.30;;;;;;5042802;28;43261;-82
2023/07/01 04:18:59;;;;;;;;;;;26.00;57.70;;;;;;5039891;28;43969;-82
2023/07/01 04:21:25;;;;;;;;;;;26.00;57.20;;;;;;5041784;28;42933;-77
2023/07/01 04:23:56;;;;;;;;;;;26.00;57.70;;;;;;5032575;28;43361;-81
2023/07/01 04:26:22;;;;;;;;;;;25.90;57.30;;;;;;5037844;28;42839;-77
2023/07/01 04:28:47;;;;;;;;;;;25.90;57.50;;;;;;5046303;28;43437;-82
2023/07/01 04:31:13;;;;;;;;;;;25.80;57.50;;;;;;5042800;28;43164;-80
2023/07/01 04:33:38;;;;;;;;;;;25.90;57.80;;;;;;5035146;28;42963;-81
2023/07/01 04:36:04;;;;;;;;;;;25.90;57.70;;;;;;5041504;28;43032;-80
2023/07/01 04:38:29;;;;;;;;;;;26.00;57.70;;;;;;5041634;28;42798;-81
2023/07/01 04:40:55;;;;;;;;;;;26.00;58.10;;;;;;5041532;28;42987;-80
2023/07/01 04:43:20;;;;;;;;;;;25.90;57.40;;;;;;5043080;28;44743;-82
2023/07/01 04:45:46;;;;;;;;;;;26.00;57.40;;;;;;5046221;28;42797;-83
2023/07/01 04:48:11;;;;;;;;;;;26.00;57.70;;;;;;5044879;28;43642;-77
2023/07/01 04:50:37;;;;;;;;;;;26.00;57.50;;;;;;5047194;28;42814;-79
2023/07/01 04:53:03;;;;;;;;;;;26.00;57.00;;;;;;5031908;28;43232;-78
2023/07/01 04:55:28;;;;;;;;;;;25.90;57.10;;;;;;5046230;28;42941;-76
2023/07/01 04:57:54;;;;;;;;;;;26.00;57.80;;;;;;5045073;28;43595;-77
2023/07/01 05:00:21;;;;;;;;;;;25.90;57.80;;;;;;5045417;28;42952;-78
2023/07/01 05:02:46;;;;;;;;;;;25.90;57.50;;;;;;5042339;28;43493;-82
2023/07/01 05:05:12;;;;;;;;;;;25.90;58.10;;;;;;5045944;28;43040;-76
2023/07/01 05:07:37;;;;;;;;;;;26.00;58.00;;;;;;5045722;28;42751;-78
2023/07/01 05:10:03;;;;;;;;;;;26.00;57.70;;;;;;5044731;28;43044;-78
2023/07/01 05:12:29;;;;;;;;;;;26.10;57.40;;;;;;5026312;28;44502;-79
2023/07/01 05:14:54;;;;;;;;;;;26.20;57.50;;;;;;5044665;28;43354;-81
2023/07/01 05:17:20;;;;;;;;;;;26.20;57.50;;;;;;5043659;28;43424;-79
2023/07/01 05:19:46;;;;;;;;;;;26.20;56.80;;;;;;5045112;28;43242;-78
2023/07/01 05:22:11;;;;;;;;;;;26.20;57.00;;;;;;5045242;28;43231;-79
2023/07/01 05:24:37;;;;;;;;;;;26.30;57.10;;;;;;5046422;28;42844;-79
2023/07/01 05:27:03;;;;;;;;;;;26.30;57.00;;;;;;5046672;28;42931;-79
2023/07/01 05:29:28;;;;;;;;;;;26.30;56.40;;;;;;5046695;28;43127;-78
2023/07/01 05:31:55;;;;;;;;;;;26.30;56.80;;;;;;5046051;28;43425;-78
2023/07/01 05:34:21;;;;;;;;;;;26.40;56.80;;;;;;5046237;28;42874;-79
2023/07/01 05:36:47;;;;;;;;;;;26.40;56.70;;;;;;5046697;28;43004;-78
2023/07/01 05:39:13;;;;;;;;;;;26.30;56.70;;;;;;5046547;28;42954;-78
2023/07/01 05:41:39;;;;;;;;;;;26.30;56.20;;;;;;5046449;28;43019;-78
2023/07/01 05:44:05;;;;;;;;;;;26.40;56.40;;;;;;5046203;28;42967;-78
2023/07/01 05:46:30;;;;;;;;;;;26.40;56.30;;;;;;5046062;28;42904;-78
2023/07/01 05:48:56;;;;;;;;;;;26.40;56.70;;;;;;5046223;28;43074;-79
2023/07/01 05:51:21;;;;;;;;;;;26.40;56.80;;;;;;5045486;28;43432;-79
2023/07/01 05:53:47;;;;;;;;;;;26.40;56.60;;;;;;5045568;28;43028;-79
2023/07/01 05:56:12;;;;;;;;;;;26.40;57.10;;;;;;5045965;28;43563;-79
2023/07/01 05:58:38;;;;;;;;;;;26.40;56.70;;;;;;5046006;28;42948;-78
2023/07/01 06:01:03;;;;;;;;;;;26.40;56.10;;;;;;5045754;28;43970;-79
2023/07/01 06:03:29;;;;;;;;;;;26.40;56.60;;;;;;5046185;28;42991;-78
2023/07/01 06:05:54;;;;;;;;;;;26.50;56.60;;;;;;5045970;28;43251;-79
2023/07/01 06:08:20;;;;;;;;;;;26.50;56.50;;;;;;5045688;28;43005;-78
2023/07/01 06:10:45;;;;;;;;;;;26.50;56.50;;;;;;5046038;28;43590;-82
2023/07/01 06:13:11;;;;;;;;;;;26.50;56.10;;;;;;5046239;28;42964;-79
2023/07/01 06:15:36;;;;;;;;;;;26.40;56.10;;;;;;5045753;28;43871;-78
2023/07/01 06:18:02;;;;;;;;;;;26.50;56.50;;;;;;5045241;28;43038;-78
2023/07/01 06:20:27;;;;;;;;;;;26.50;56.50;;;;;;5045732;28;42933;-78
2023/07/01 06:22:53;;;;;;;;;;;26.50;56.00;;;;;;5046305;28;42901;-78
2023/07/01 06:25:19;;;;;;;;;;;26.50;56.50;;;;;;5045984;28;43343;-78
2023/07/01 06:27:44;;;;;;;;;;;26.50;56.40;;;;;;5044885;28;42975;-78
2023/07/01 06:30:10;;;;;;;;;;;26.50;56.00;;;;;;5045663;28;43031;-78
2023/07/01 06:32:36;;;;;;;;;;;26.50;56.40;;;;;;5045314;28;42992;-78
2023/07/01 06:35:02;;;;;;;;;;;26.50;56.40;;;;;;5045771;28;43247;-77
2023/07/01 06:37:27;;;;;;;;;;;26.50;56.50;;;;;;5027070;28;43032;-78
2023/07/01 06:39:53;;;;;;;;;;;26.50;56.50;;;;;;5045299;28;43572;-78
2023/07/01 06:42:18;;;;;;;;;;;26.50;56.40;;;;;;5044905;28;43123;-79
2023/07/01 06:44:44;;;;;;;;;;;26.50;56.50;;;;;;5045139;28;43802;-79
2023/07/01 06:47:09;;;;;;;;;;;26.50;56.50;;;;;;5045232;28;42888;-79
2023/07/01 06:49:35;;;;;;;;;;;26.50;56.40;;;;;;5045285;28;42993;-80
2023/07/01 06:52:01;;;;;;;;;;;26.50;56.40;;;;;;5044886;28;42921;-82
2023/07/01 06:54:26;;;;;;;;;;;26.50;56.00;;;;;;5044981;28;43483;-79
2023/07/01 06:56:52;;;;;;;;;;;26.50;56.50;;;;;;5045333;28;42841;-79
2023/07/01 06:59:18;;;;;;;;;;;26.50;56.40;;;;;;5045064;28;43449;-78
2023/07/01 07:01:43;;;;;;;;;;;26.50;55.90;;;;;;5044825;28;42735;-79
2023/07/01 07:04:09;;;;;;;;;;;26.50;55.90;;;;;;5044479;28;44119;-82
2023/07/01 07:06:34;;;;;;;;;;;26.50;56.30;;;;;;5045277;28;42924;-78
2023/07/01 07:09:00;;;;;;;;;;;26.50;56.40;;;;;;5045276;28;42952;-78
2023/07/01 07:11:25;;;;;;;;;;;26.50;55.80;;;;;;5044693;28;43115;-78
2023/07/01 07:13:51;;;;;;;;;;;26.50;55.80;;;;;;5044602;28;42991;-78
2023/07/01 07:16:16;;;;;;;;;;;26.60;55.80;;;;;;5044707;28;43077;-79
2023/07/01 07:18:42;;;;;;;;;;;26.60;55.80;;;;;;5045046;28;43639;-79
2023/07/01 07:21:07;;;;;;;;;;;26.60;56.30;;;;;;5045818;28;42861;-79
2023/07/01 07:23:33;;;;;;;;;;;26.60;56.30;;;;;;5045906;28;42866;-80
2023/07/01 07:25:58;;;;;;;;;;;26.50;55.70;;;;;;5046224;28;42953;-79
2023/07/01 07:28:24;;;;;;;;;;;26.60;56.20;;;;;;5045527;28;42969;-80
2023/07/01 07:30:49;;;;;;;;;;;26.50;55.70;;;;;;5045577;28;42864;-80
2023/07/01 07:33:15;;;;;;;;;;;26.50;56.20;;;;;;5046643;28;43355;-79
2023/07/01 07:35:40;;;;;;;;;;;26.50;55.70;;;;;;5046282;28;42798;-79
2023/07/01 07:38:06;;;;;;;;;;;26.60;55.70;;;;;;5046251;28;42848;-79
2023/07/01 07:40:31;;;;;;;;;;;26.60;55.70;;;;;;5046514;28;42943;-78
2023/07/01 07:42:57;;;;;;;;;;;26.60;56.20;;;;;;5050088;28;42932;-78
2023/07/01 07:45:23;;;;;;;;;;;26.60;56.10;;;;;;5050106;28;43116;-78
2023/07/01 07:47:48;;;;;;;;;;;26.60;56.10;;;;;;5050294;28;42932;-80
2023/07/01 07:50:14;;;;;;;;;;;26.60;56.10;;;;;;5050055;28;43008;-79
2023/07/01 07:52:40;;;;;;;;;;;26.60;55.50;;;;;;5049887;28;42845;-80
2023/07/01 07:55:06;;;;;;;;;;;26.60;56.00;;;;;;5049085;28;43080;-78
2023/07/01 07:57:31;;;;;;;;;;;26.70;56.00;;;;;;5048594;28;42858;-79
2023/07/01 07:59:58;;;;;;;;;;;26.60;56.00;;;;;;5048244;28;42893;-78
2023/07/01 08:02:24;;;;;;;;;;;26.60;55.90;;;;;;5047217;28;43587;-79
2023/07/01 08:04:49;;;;;;;;;;;26.60;55.90;;;;;;5047643;28;42901;-78
2023/07/01 08:07:15;;;;;;;;;;;26.60;55.40;;;;;;5047561;28;43018;-78
2023/07/01 08:09:41;;;;;;;;;;;26.60;55.90;;;;;;5047725;28;42970;-78
2023/07/01 08:12:07;;;;;;;;;;;26.70;55.90;;;;;;5047508;28;42936;-79
2023/07/01 08:14:32;;;;;;;;;;;26.60;55.30;;;;;;5048174;28;42967;-82
2023/07/01 08:16:58;;;;;;;;;;;26.60;55.80;;;;;;5047918;28;42890;-78
2023/07/01 08:19:24;;;;;;;;;;;26.70;55.90;;;;;;5047754;28;43123;-79
2023/07/01 08:21:49;;;;;;;;;;;26.60;55.30;;;;;;5047016;28;42952;-80
2023/07/01 08:24:15;;;;;;;;;;;26.60;55.80;;;;;;5047807;28;42876;-79
2023/07/01 08:26:40;;;;;;;;;;;26.70;55.30;;;;;;5048016;28;42959;-78
2023/07/01 08:29:07;;;;;;;;;;;26.70;55.80;;;;;;5048103;28;43075;-78
2023/07/01 08:31:32;;;;;;;;;;;26.70;55.70;;;;;;5048316;28;43499;-78
2023/07/01 08:33:58;;;;;;;;;;;26.70;55.60;;;;;;5047535;28;42980;-82
2023/07/01 08:36:24;;;;;;;;;;;26.70;55.60;;;;;;5047243;28;42897;-83
2023/07/01 08:38:50;;;;;;;;;;;26.70;55.20;;;;;;5028863;28;43025;-78
2023/07/01 08:41:16;;;;;;;;;;;26.70;55.20;;;;;;5028918;28;44491;-78
2023/07/01 08:43:44;;;;;;;;;;;26.70;55.20;;;;;;5047195;28;42933;-78
2023/07/01 08:46:12;;;;;;;;;;;26.70;55.10;;;;;;5047259;28;43049;-78
2023/07/01 08:48:38;;;;;;;;;;;26.70;55.20;;;;;;5047475;28;42877;-78
2023/07/01 08:51:11;;;;;;;;;;;26.60;55.10;;;;;;5047320;28;42928;-78
2023/07/01 08:53:37;;;;;;;;;;;26.70;55.10;;;;;;5047283;28;42850;-78
2023/07/01 08:56:03;;;;;;;;;;;26.70;55.20;;;;;;5047096;28;43405;-78
2023/07/01 08:58:30;;;;;;;;;;;26.70;55.10;;;;;;5047361;28;42861;-81
2023/07/01 09:00:56;;;;;;;;;;;26.70;55.10;;;;;;5046638;28;42987;-79
2023/07/01 09:03:22;;;;;;;;;;;26.60;55.00;;;;;;5047011;28;42874;-78
2023/07/01 09:05:48;;;;;;;;;;;26.70;55.60;;;;;;5047185;28;42933;-84
2023/07/01 09:08:13;;;;;;;;;;;26.70;55.60;;;;;;5047620;28;42896;-79
2023/07/01 09:10:39;;;;;;;;;;;26.70;55.10;;;;;;5047630;28;42814;-78
2023/07/01 09:13:11;;;;;;;;;;;26.70;55.60;;;;;;5047467;28;42983;-78
2023/07/01 09:15:45;;;;;;;;;;;26.70;55.20;;;;;;5047982;28;43412;-78
2023/07/01 09:18:20;;;;;;;;;;;26.80;55.70;;;;;;5047331;28;42981;-79
2023/07/01 09:20:47;;;;;;;;;;;26.70;55.10;;;;;;5047254;28;43488;-78
2023/07/01 09:23:24;;;;;;;;;;;26.70;55.10;;;;;;5047029;28;42927;-78
2023/07/01 09:25:49;;;;;;;;;;;26.70;55.10;;;;;;5046889;28;43573;-78
2023/07/01 09:28:29;;;;;;;;;;;26.70;55.10;;;;;;5047152;28;42893;-77
2023/07/01 09:30:54;;;;;;;;;;;26.70;55.60;;;;;;5046913;28;42980;-78
2023/07/01 09:33:20;;;;;;;;;;;26.70;55.00;;;;;;5046677;28;42962;-77
2023/07/01 09:35:46;;;;;;;;;;;26.70;55.50;;;;;;5046263;28;43113;-78
2023/07/01 09:38:11;;;;;;;;;;;26.70;55.40;;;;;;5046456;28;42876;-78
2023/07/01 09:40:37;;;;;;;;;;;26.70;54.90;;;;;;5046472;28;43290;-78
2023/07/01 09:43:03;;;;;;;;;;;26.70;54.90;;;;;;5046211;28;42928;-77
2023/07/01 09:45:28;;;;;;;;;;;26.70;54.90;;;;;;5027788;28;45716;-79
2023/07/01 09:47:54;;;;;;;;;;;26.70;54.80;;;;;;5046351;28;42893;-78
2023/07/01 09:50:23;;;;;;;;;;;26.70;54.80;;;;;;5046313;28;43419;-77
2023/07/01 09:52:50;;;;;;;;;;;26.70;55.30;;;;;;5046276;28;43023;-79
2023/07/01 09:55:15;;;;;;;;;;;26.70;54.80;;;;;;5046291;28;43638;-80
2023/07/01 09:57:41;;;;;;;;;;;26.70;54.80;;;;;;5046040;28;42943;-78
2023/07/01 10:00:09;;;;;;;;;;;26.70;55.20;;;;;;5046017;28;42879;-78
2023/07/01 10:02:35;;;;;;;;;;;26.70;55.30;;;;;;5045788;28;42815;-79
2023/07/01 10:05:01;;;;;;;;;;;26.70;55.20;;;;;;5045891;28;42902;-79
2023/07/01 10:07:26;;;;;;;;;;;26.70;55.20;;;;;;5046252;28;42890;-78
2023/07/01 10:09:52;;;;;;;;;;;26.70;54.70;;;;;;5045994;28;43474;-77
2023/07/01 10:12:18;;;;;;;;;;;26.70;54.70;;;;;;5046131;28;42944;-78
2023/07/01 10:14:48;;;;;;;;;;;26.70;54.70;;;;;;5046220;28;43602;-78
2023/07/01 10:17:17;;;;;;;;;;;28.30;56.20;;;;;;5046461;28;42893;-85
2023/07/01 10:19:48;;;;;;;;;;;26.70;55.10;;;;;;5045191;28;43535;-79
2023/07/01 10:22:24;;;;;;;;;;;26.70;54.70;;;;;;5045645;28;42755;-83
2023/07/01 10:24:55;;;;;;;;;;;26.70;55.10;;;;;;5027292;28;42898;-79
2023/07/01 10:27:39;;;;;;;;;;;26.80;54.70;;;;;;5045301;28;42975;-78
2023/07/01 10:30:05;;;;;;;;;;;26.70;55.00;;;;;;5045313;28;43675;-79
2023/07/01 10:32:31;;;;;;;;;;;26.80;54.60;;;;;;5045168;28;42961;-78
2023/07/01 10:34:58;;;;;;;;;;;26.70;55.00;;;;;;5027080;28;42897;-79
2023/07/01 10:37:27;;;;;;;;;;;26.80;54.60;;;;;;5046027;28;42829;-78
2023/07/01 10:39:54;;;;;;;;;;;26.80;54.60;;;;;;5045752;28;43569;-79
2023/07/01 10:42:31;;;;;;;;;;;26.80;54.60;;;;;;5045191;28;42897;-78
2023/07/01 10:45:12;;;;;;;;;;;26.80;55.00;;;;;;5045302;28;42921;-78
2023/07/01 10:47:38;;;;;;;;;;;26.80;55.00;;;;;;5045412;28;42855;-78
2023/07/01 10:50:05;;;;;;;;;;;26.70;54.40;;;;;;5027256;28;45103;-78
2023/07/01 10:52:31;;;;;;;;;;;26.80;54.50;;;;;;5027277;28;43026;-79
2023/07/01 10:54:59;;;;;;;;;;;26.80;54.50;;;;;;5045326;28;43623;-79
2023/07/01 10:57:24;;;;;;;;;;;26.80;54.90;;;;;;5045746;28;42936;-79
2023/07/01 10:59:50;;;;;;;;;;;26.70;54.40;;;;;;5045407;28;44305;-79
2023/07/01 11:02:34;;;;;;;;;;;26.70;54.40;;;;;;5045604;28;42973;-78
2023/07/01 11:05:03;;;;;;;;;;;26.80;54.90;;;;;;5045242;28;43735;-79
2023/07/01 11:07:29;;;;;;;;;;;26.80;54.40;;;;;;5045312;28;42964;-79
2023/07/01 11:09:55;;;;;;;;;;;26.80;54.40;;;;;;5027187;28;45655;-78
2023/07/01 11:12:21;;;;;;;;;;;26.80;54.80;;;;;;5045164;28;43001;-78
2023/07/01 11:14:46;;;;;;;;;;;26.80;54.30;;;;;;5043899;28;42928;-78
2023/07/01 11:17:15;;;;;;;;;;;26.80;54.80;;;;;;5045074;28;43073;-78
2023/07/01 11:19:40;;;;;;;;;;;26.80;54.80;;;;;;5044959;28;43605;-81
2023/07/01 11:22:09;;;;;;;;;;;26.80;54.30;;;;;;5044469;28;42944;-78
2023/07/01 11:24:36;;;;;;;;;;;26.80;55.10;;;;;;5044122;28;43475;-78
2023/07/01 11:27:07;;;;;;;;;;;26.80;54.30;;;;;;5044337;28;42913;-78
2023/07/01 11:29:34;;;;;;;;;;;26.80;54.70;;;;;;5045361;28;43792;-79
2023/07/01 11:32:00;;;;;;;;;;;26.80;54.30;;;;;;5045065;28;42853;-91
2023/07/01 11:34:27;;;;;;;;;;;26.80;54.20;;;;;;5044970;28;42839;-79
2023/07/01 11:36:53;;;;;;;;;;;26.80;54.70;;;;;;5045279;28;42865;-86
2023/07/01 11:39:19;;;;;;;;;;;26.80;54.70;;;;;;5046307;28;43417;-80
2023/07/01 11:41:47;;;;;;;;;;;26.80;54.20;;;;;;5047231;28;42881;-85
2023/07/01 11:44:13;;;;;;;;;;;26.80;54.20;;;;;;5047007;28;42932;-83
2023/07/01 11:46:40;;;;;;;;;;;26.80;54.60;;;;;;5045188;28;42938;-81
2023/07/01 11:49:15;;;;;;;;;;;26.80;54.10;;;;;;5027032;28;45544;-81
2023/07/01 11:51:45;;;;;;;;;;;26.80;54.10;;;;;;5045230;28;42896;-89
2023/07/01 11:54:10;;;;;;;;;;;26.80;54.60;;;;;;5045010;28;42858;-78
2023/07/01 11:56:36;;;;;;;;;;;26.80;54.10;;;;;;5046033;28;42969;-83
2023/07/01 11:59:01;;;;;;;;;;;26.80;54.10;;;;;;5045259;28;43938;-86
2023/07/01 12:01:27;;;;;;;;;;;26.80;54.60;;;;;;5046284;28;43012;-82
2023/07/01 12:03:53;;;;;;;;;;;26.80;54.60;;;;;;5045882;28;44462;-80
2023/07/01 12:06:20;;;;;;;;;;;26.80;54.10;;;;;;5046078;28;43111;-93
2023/07/01 12:08:49;;;;;;;;;;;26.80;54.60;;;;;;5046285;28;42976;-81
2023/07/01 12:11:15;;;;;;;;;;;26.80;54.10;;;;;;5045514;28;42996;-85
2023/07/01 12:13:41;;;;;;;;;;;26.80;54.50;;;;;;5044870;28;43621;-80
2023/07/01 12:16:06;;;;;;;;;;;26.80;54.00;;;;;;5047133;28;42940;-85
2023/07/01 12:18:32;;;;;;;;;;;26.80;54.50;;;;;;5045228;28;42868;-82
2023/07/01 12:20:58;;;;;;;;;;;26.80;54.00;;;;;;5044915;28;43081;-77
2023/07/01 12:23:23;;;;;;;;;;;26.80;54.50;;;;;;5044292;28;42975;-81
2023/07/01 12:25:49;;;;;;;;;;;26.80;54.00;;;;;;5045039;28;42867;-78
2023/07/01 12:28:16;;;;;;;;;;;26.80;54.00;;;;;;5047814;28;43773;-79
2023/07/01 12:30:41;;;;;;;;;;;26.80;53.90;;;;;;5049611;28;42828;-81
2023/07/01 12:33:07;;;;;;;;;;;26.80;54.40;;;;;;5029742;28;44471;-79
2023/07/01 12:35:33;;;;;;;;;;;26.80;54.50;;;;;;5048178;28;42960;-83
2023/07/01 12:37:58;;;;;;;;;;;26.80;54.40;;;;;;5048750;28;42835;-82
2023/07/01 12:40:27;;;;;;;;;;;26.80;54.50;;;;;;5048642;28;42857;-78
2023/07/01 12:42:53;;;;;;;;;;;26.80;53.90;;;;;;5048907;28;44583;-78
2023/07/01 12:45:18;;;;;;;;;;;26.80;54.40;;;;;;5048709;28;42897;-78
2023/07/01 12:47:44;;;;;;;;;;;26.80;53.90;;;;;;5050936;28;43265;-92
2023/07/01 12:50:10;;;;;;;;;;;26.80;53.90;;;;;;5049903;28;42909;-78
2023/07/01 12:52:36;;;;;;;;;;;26.80;54.40;;;;;;5052755;28;43561;-85
2023/07/01 12:55:01;;;;;;;;;;;26.80;53.90;;;;;;5055731;28;43013;-83
2023/07/01 12:57:27;;;;;;;;;;;26.80;53.90;;;;;;5049431;28;43680;-78
2023/07/01 12:59:55;;;;;;;;;;;26.80;53.90;;;;;;5047553;28;42858;-78
2023/07/01 13:02:21;;;;;;;;;;;26.80;53.90;;;;;;5048339;28;43525;-78
2023/07/01 13:05:00;;;;;;;;;;;26.80;53.80;;;;;;5051175;28;43206;-80
2023/07/01 13:07:29;;;;;;;;;;;26.90;53.90;;;;;;5031400;28;43950;-78
2023/07/01 13:09:55;;;;;;;;;;;26.80;53.80;;;;;;5032061;28;42711;-77
2023/07/01 13:12:24;;;;;;;;;;;26.80;54.30;;;;;;5049424;28;44242;-79
2023/07/01 13:14:50;;;;;;;;;;;26.80;53.70;;;;;;5050663;28;42852;-79
2023/07/01 13:17:15;;;;;;;;;;;26.80;53.70;;;;;;5057101;28;43494;-89
2023/07/01 13:19:41;;;;;;;;;;;26.80;53.70;;;;;;5057288;28;42907;-79
2023/07/01 13:22:06;;;;;;;;;;;26.80;53.70;;;;;;5047304;28;43400;-78
2023/07/01 13:24:38;;;;;;;;;;;26.90;53.80;;;;;;5046741;28;42897;-78
2023/07/01 13:27:05;;;;;;;;;;;26.80;54.10;;;;;;5048196;28;43632;-78
2023/07/01 13:29:31;;;;;;;;;;;26.80;54.10;;;;;;5047738;28;42887;-78
2023/07/01 13:32:00;;;;;;;;;;;26.90;53.70;;;;;;5046844;28;42874;-78
2023/07/01 13:34:25;;;;;;;;;;;26.90;54.20;;;;;;5046709;28;42935;-78
2023/07/01 13:36:52;;;;;;;;;;;26.90;54.20;;;;;;5047015;28;42868;-79
2023/07/01 13:39:33;;;;;;;;;;;26.90;53.70;;;;;;5048670;28;42965;-88
2023/07/01 13:42:01;;;;;;;;;;;26.90;54.10;;;;;;5055939;28;42717;-85
2023/07/01 13:44:27;;;;;;;;;;;26.90;53.70;;;;;;5057246;28;43048;-79
2023/07/01 13:46:52;;;;;;;;;;;26.80;54.10;;;;;;5048105;28;44184;-78
2023/07/01 13:49:23;;;;;;;;;;;26.90;54.10;;;;;;5049559;28;42825;-82
2023/07/01 13:51:49;;;;;;;;;;;26.90;54.10;;;;;;5053069;28;43055;-91
2023/07/01 13:54:17;;;;;;;;;;;26.90;53.60;;;;;;5051797;28;42936;-79
2023/07/01 13:56:42;;;;;;;;;;;26.90;53.60;;;;;;5032465;28;44384;-79
2023/07/01 13:59:12;;;;;;;;;;;26.90;54.00;;;;;;5052682;28;42825;-79
2023/07/01 14:01:39;;;;;;;;;;;26.90;53.60;;;;;;5049058;28;43694;-78
2023/07/01 14:04:04;;;;;;;;;;;26.90;53.60;;;;;;5047627;28;42888;-83
2023/07/01 14:06:31;;;;;;;;;;;26.90;54.00;;;;;;5048395;28;42749;-94
2023/07/01 14:08:56;;;;;;;;;;;26.90;54.00;;;;;;5047244;28;42941;-80
2023/07/01 14:11:27;;;;;;;;;;;26.90;54.10;;;;;;5047894;28;42838;-80
2023/07/01 14:13:57;;;;;;;;;;;26.90;53.50;;;;;;5050951;28;43505;-86